Time;durP1;ratioP1;P1;durP2;ratioP2;P2;SDS_P1;SDS_P2;PMS_P1;PMS_P2;Temp;Humidity;BMP_temperature;BMP_pressure;BME280_temperature;BME280_humidity;BME280_pressure;Samples;Min_cycle;Max_cycle;Signal;HPM_P1;HPM_P2
2020/03/20 00:00:26;;;;;;;14.4;10.9;;;;;;;6.47;80.46191;95617.32;;;;
2020/03/20 00:01:39;;;;;;;12.2;10.75;;;;;;;6.51;80.93457;95612.8;;;;
2020/03/20 00:03:17;;;;;;;12.2;10.75;;;;;;;6.51;80.93457;95612.8;;;;
2020/03/20 00:04:23;;;;;;;13.7;11.15;;;;;;;6.54;81.34277;95607.43;;;;
2020/03/20 00:05:28;;;;;;;13.7;11.15;;;;;;;6.54;81.34277;95607.43;;;;
2020/03/20 00:06:53;;;;;;;14.8;12.4;;;;;;;6.57;81.63281;95610.21;;;;
2020/03/20 00:08:07;;;;;;;14.8;12.4;;;;;;;6.57;81.63281;95610.21;;;;
2020/03/20 00:09:24;;;;;;;14.8;12.4;;;;;;;6.57;81.63281;95610.21;;;;
2020/03/20 00:11:40;;;;;;;15.15;11.4;;;;;;;6.57;81.91992;95611.45;;;;
2020/03/20 00:12:55;;;;;;;15.15;11.4;;;;;;;6.57;81.91992;95611.45;;;;
2020/03/20 00:14:42;;;;;;;15.15;11.4;;;;;;;6.57;81.91992;95611.45;;;;
2020/03/20 00:15:46;;;;;;;15.15;11.4;;;;;;;6.57;81.91992;95611.45;;;;
2020/03/20 00:17:06;;;;;;;15.15;11.4;;;;;;;6.57;81.91992;95611.45;;;;
2020/03/20 00:18:25;;;;;;;15.15;11.4;;;;;;;6.57;81.91992;95611.45;;;;
2020/03/20 00:19:43;;;;;;;15.15;11.4;;;;;;;6.57;81.91992;95611.45;;;;
2020/03/20 00:21:59;;;;;;;15.35;13.6;;;;;;;6.2;80.28418;95608.46;;;;
2020/03/20 00:22:59;;;;;;;19.15;15.35;;;;;;;6.17;81.19824;95598.95;;;;
2020/03/20 00:24:07;;;;;;;19.15;15.35;;;;;;;6.17;81.19824;95598.95;;;;
2020/03/20 00:26:00;;;;;;;19.15;15.35;;;;;;;6.17;81.19824;95598.95;;;;
2020/03/20 00:27:14;;;;;;;19.15;15.35;;;;;;;6.17;81.19824;95598.95;;;;
2020/03/20 00:28:23;;;;;;;19.15;15.35;;;;;;;6.17;81.19824;95598.95;;;;
2020/03/20 00:29:34;;;;;;;19.15;15.35;;;;;;;6.17;81.19824;95598.95;;;;
2020/03/20 00:30:50;;;;;;;19.15;15.35;;;;;;;6.17;81.19824;95598.95;;;;
2020/03/20 00:32:05;;;;;;;19.15;15.35;;;;;;;6.17;81.19824;95598.95;;;;
2020/03/20 00:33:07;;;;;;;19.15;15.35;;;;;;;6.17;81.19824;95598.95;;;;
2020/03/20 00:39:32;;;;;;;16.05;13.35;;;;;;;5.9;81.02051;95587.43;;;;
2020/03/20 00:41:39;;;;;;;16.05;13.35;;;;;;;5.9;81.02051;95587.43;;;;
2020/03/20 00:47:11;;;;;;;17.95;13.05;;;;;;;5.69;79.82031;95575.84;;;;
2020/03/20 00:48:54;;;;;;;17.95;13.05;;;;;;;5.69;79.82031;95575.84;;;;
2020/03/20 00:50:18;;;;;;;19.55;14.15;;;;;;;5.69;80.89941;95579.36;;;;
2020/03/20 00:55:34;;;;;;;19.55;14.15;;;;;;;5.69;80.89941;95579.36;;;;
2020/03/20 00:56:45;;;;;;;19.55;14.15;;;;;;;5.69;80.89941;95579.36;;;;
2020/03/20 00:57:46;;;;;;;19.55;14.15;;;;;;;5.69;80.89941;95579.36;;;;
2020/03/20 00:58:49;;;;;;;19.55;14.15;;;;;;;5.69;80.89941;95579.36;;;;
2020/03/20 01:00:00;;;;;;;16.65;13.35;;;;;;;5.5;79.80664;95571.64;;;;
2020/03/20 01:02:08;;;;;;;16.65;13.35;;;;;;;5.5;79.80664;95571.64;;;;
2020/03/20 01:06:10;;;;;;;15.4;12.65;;;;;;;5.57;81.64648;95560.46;;;;
2020/03/20 01:15:06;;;;;;;15;13;;;;;;;5.62;82.19336;95566.96;;;;
2020/03/20 01:24:29;;;;;;;12.8;11.3;;;;;;;5.39;81.70605;95555.2;;;;
2020/03/20 01:30:43;;;;;;;12.8;11.3;;;;;;;5.39;81.70605;95555.2;;;;
2020/03/20 01:36:46;;;;;;;15.55;12.55;;;;;;;5.21;81.59863;95549.54;;;;
2020/03/20 01:46:09;;;;;;;17.9;13.6;;;;;;;5.04;80.61719;95542.02;;;;
2020/03/20 01:55:22;;;;;;;15.9;13.35;;;;;;;5.04;81.69434;95536.55;;;;
2020/03/20 02:01:45;;;;;;;17.95;14.05;;;;;;;4.89;80.76855;95537.69;;;;
2020/03/20 02:04:59;;;;;;;17.95;14.05;;;;;;;4.89;80.76855;95537.69;;;;
2020/03/20 02:14:14;;;;;;;17.6;13.5;;;;;;;4.75;80.31152;95532.31;;;;
2020/03/20 02:22:15;;;;;;;18.2;14.55;;;;;;;4.63;81.25781;95531.61;;;;
2020/03/20 02:23:44;;;;;;;18.2;14.55;;;;;;;4.63;81.25781;95531.61;;;;
2020/03/20 02:25:01;;;;;;;18.2;14.55;;;;;;;4.63;81.25781;95531.61;;;;
2020/03/20 02:26:32;;;;;;;18.2;14.55;;;;;;;4.63;81.25781;95531.61;;;;
2020/03/20 02:27:51;;;;;;;18.2;14.55;;;;;;;4.63;81.25781;95531.61;;;;
2020/03/20 02:29:13;;;;;;;18.2;14.55;;;;;;;4.63;81.25781;95531.61;;;;
2020/03/20 02:30:26;;;;;;;18.2;14.55;;;;;;;4.63;81.25781;95531.61;;;;
2020/03/20 02:32:53;;;;;;;19;14.4;;;;;;;4.53;80.49121;95522.27;;;;
2020/03/20 02:34:01;;;;;;;19;14.4;;;;;;;4.53;80.49121;95522.27;;;;
2020/03/20 02:35:23;;;;;;;18.3;14.9;;;;;;;4.55;81.64355;95524.13;;;;
2020/03/20 02:37:12;;;;;;;18.3;14.9;;;;;;;4.55;81.64355;95524.13;;;;
2020/03/20 02:38:28;;;;;;;18.3;14.9;;;;;;;4.55;81.64355;95524.13;;;;
2020/03/20 02:39:39;;;;;;;18.3;14.9;;;;;;;4.55;81.64355;95524.13;;;;
2020/03/20 02:45:57;;;;;;;16.3;12.95;;;;;;;4.42;80.89258;95516.03;;;;
2020/03/20 02:51:31;;;;;;;18.8;14.7;;;;;;;4.44;82.00098;95523.32;;;;
2020/03/20 02:52:41;;;;;;;18.8;14.7;;;;;;;4.44;82.00098;95523.32;;;;
2020/03/20 02:53:57;;;;;;;18.8;14.7;;;;;;;4.44;82.00098;95523.32;;;;
2020/03/20 02:55:15;;;;;;;18.8;14.7;;;;;;;4.44;82.00098;95523.32;;;;
2020/03/20 02:56:31;;;;;;;18.8;14.7;;;;;;;4.44;82.00098;95523.32;;;;
2020/03/20 02:57:47;;;;;;;18.8;14.7;;;;;;;4.44;82.00098;95523.32;;;;
2020/03/20 02:58:59;;;;;;;18.8;14.7;;;;;;;4.44;82.00098;95523.32;;;;
2020/03/20 03:00:42;;;;;;;14.45;11.5;;;;;;;4.35;81.09961;95530.35;;;;
2020/03/20 03:10:54;;;;;;;14.25;11.45;;;;;;;4.37;82.17676;95530.06;;;;
2020/03/20 03:20:06;;;;;;;15.7;12.2;;;;;;;4.26;81.31543;95535;;;;
2020/03/20 03:22:01;;;;;;;15.7;12.2;;;;;;;4.26;81.31543;95535;;;;
2020/03/20 03:23:33;;;;;;;15.7;12.2;;;;;;;4.26;81.31543;95535;;;;
2020/03/20 03:25:43;;;;;;;15.7;12.2;;;;;;;4.26;81.31543;95535;;;;
2020/03/20 03:26:49;;;;;;;15.7;12.2;;;;;;;4.26;81.31543;95535;;;;
2020/03/20 03:27:54;;;;;;;15.7;12.2;;;;;;;4.26;81.31543;95535;;;;
2020/03/20 03:28:57;;;;;;;15.7;12.2;;;;;;;4.26;81.31543;95535;;;;
2020/03/20 03:29:57;;;;;;;15.7;12.2;;;;;;;4.26;81.31543;95535;;;;
2020/03/20 03:31:20;;;;;;;15.7;12.2;;;;;;;4.26;81.31543;95535;;;;
2020/03/20 03:32:21;;;;;;;15.7;12.2;;;;;;;4.26;81.31543;95535;;;;
2020/03/20 03:33:21;;;;;;;15.7;12.2;;;;;;;4.26;81.31543;95535;;;;
2020/03/20 03:34:27;;;;;;;18.5;14.95;;;;;;;4.08;80.33301;95534.19;;;;
2020/03/20 03:35:28;;;;;;;18.5;14.95;;;;;;;4.08;80.33301;95534.19;;;;
2020/03/20 03:36:32;;;;;;;18.5;14.95;;;;;;;4.08;80.33301;95534.19;;;;
2020/03/20 03:37:32;;;;;;;22.15;16.5;;;;;;;4.1;81.55859;95537.89;;;;
2020/03/20 03:38:33;;;;;;;22.15;16.5;;;;;;;4.1;81.55859;95537.89;;;;
2020/03/20 03:39:33;;;;;;;22.15;16.5;;;;;;;4.1;81.55859;95537.89;;;;
2020/03/20 03:40:42;;;;;;;22.15;16.5;;;;;;;4.1;81.55859;95537.89;;;;
2020/03/20 03:42:01;;;;;;;22.15;16.5;;;;;;;4.1;81.55859;95537.89;;;;
2020/03/20 03:43:02;;;;;;;22.15;16.5;;;;;;;4.1;81.55859;95537.89;;;;
2020/03/20 03:44:08;;;;;;;22.15;16.5;;;;;;;4.1;81.55859;95537.89;;;;
2020/03/20 03:45:08;;;;;;;22.15;16.5;;;;;;;4.1;81.55859;95537.89;;;;
2020/03/20 03:46:15;;;;;;;22.15;16.5;;;;;;;4.1;81.55859;95537.89;;;;
2020/03/20 03:47:18;;;;;;;21.9;16.35;;;;;;;3.98;81.05176;95530.07;;;;
2020/03/20 03:48:20;;;;;;;21.9;16.35;;;;;;;3.98;81.05176;95530.07;;;;
2020/03/20 03:49:22;;;;;;;21.9;16.35;;;;;;;3.98;81.05176;95530.07;;;;
2020/03/20 03:50:22;;;;;;;21.45;17;;;;;;;4;82.20117;95532.47;;;;
2020/03/20 03:51:23;;;;;;;21.45;17;;;;;;;4;82.20117;95532.47;;;;
2020/03/20 03:52:28;;;;;;;21.45;17;;;;;;;4;82.20117;95532.47;;;;
2020/03/20 03:53:29;;;;;;;21.45;17;;;;;;;4;82.20117;95532.47;;;;
2020/03/20 03:54:30;;;;;;;21.45;17;;;;;;;4;82.20117;95532.47;;;;
2020/03/20 03:55:30;;;;;;;21.45;17;;;;;;;4;82.20117;95532.47;;;;
2020/03/20 03:56:31;;;;;;;21.45;17;;;;;;;4;82.20117;95532.47;;;;
2020/03/20 03:57:32;;;;;;;21.45;17;;;;;;;4;82.20117;95532.47;;;;
2020/03/20 03:58:33;;;;;;;21.45;17;;;;;;;4;82.20117;95532.47;;;;
2020/03/20 03:59:33;;;;;;;21.45;17;;;;;;;4;82.20117;95532.47;;;;
2020/03/20 04:00:34;;;;;;;20.8;15.85;;;;;;;3.94;81.82227;95515.84;;;;
2020/03/20 04:01:51;;;;;;;20.8;15.85;;;;;;;3.94;81.82227;95515.84;;;;
2020/03/20 04:02:55;;;;;;;20.8;15.85;;;;;;;3.94;81.82227;95515.84;;;;
2020/03/20 04:03:55;;;;;;;20.8;15.85;;;;;;;3.94;81.82227;95515.84;;;;
2020/03/20 04:05:02;;;;;;;20.8;15.85;;;;;;;3.94;81.82227;95515.84;;;;
2020/03/20 04:06:04;;;;;;;20.8;15.85;;;;;;;3.94;81.82227;95515.84;;;;
2020/03/20 04:07:05;;;;;;;20.8;15.85;;;;;;;3.94;81.82227;95515.84;;;;
2020/03/20 04:08:09;;;;;;;20.8;15.85;;;;;;;3.94;81.82227;95515.84;;;;
2020/03/20 04:09:10;;;;;;;20.8;15.85;;;;;;;3.94;81.82227;95515.84;;;;
2020/03/20 04:10:49;;;;;;;20.8;15.85;;;;;;;3.94;81.82227;95515.84;;;;
2020/03/20 04:12:10;;;;;;;22.2;16.55;;;;;;;3.94;81.37012;95524.78;;;;
2020/03/20 04:13:14;;;;;;;22.2;16.55;;;;;;;3.94;81.37012;95524.78;;;;
2020/03/20 04:14:20;;;;;;;22.2;16.55;;;;;;;3.94;81.37012;95524.78;;;;
2020/03/20 04:15:27;;;;;;;22.2;16.55;;;;;;;3.94;81.37012;95524.78;;;;
2020/03/20 04:16:28;;;;;;;22.2;16.55;;;;;;;3.94;81.37012;95524.78;;;;
2020/03/20 04:17:29;;;;;;;22.2;16.55;;;;;;;3.94;81.37012;95524.78;;;;
2020/03/20 04:18:29;;;;;;;22.2;16.55;;;;;;;3.94;81.37012;95524.78;;;;
2020/03/20 04:19:30;;;;;;;22.2;16.55;;;;;;;3.94;81.37012;95524.78;;;;
2020/03/20 04:20:31;;;;;;;22.2;16.55;;;;;;;3.94;81.37012;95524.78;;;;
2020/03/20 04:21:32;;;;;;;22.2;16.55;;;;;;;3.94;81.37012;95524.78;;;;
2020/03/20 04:22:36;;;;;;;21.1;15.3;;;;;;;3.82;81.08398;95532.06;;;;
2020/03/20 04:23:37;;;;;;;21.1;15.3;;;;;;;3.82;81.08398;95532.06;;;;
2020/03/20 04:24:41;;;;;;;20.4;16.85;;;;;;;3.89;82.23242;95525.45;;;;
2020/03/20 04:25:43;;;;;;;20.4;16.85;;;;;;;3.89;82.23242;95525.45;;;;
2020/03/20 04:26:44;;;;;;;20.4;16.85;;;;;;;3.89;82.23242;95525.45;;;;
2020/03/20 04:27:48;;;;;;;20.4;16.85;;;;;;;3.89;82.23242;95525.45;;;;
2020/03/20 04:28:48;;;;;;;20.4;16.85;;;;;;;3.89;82.23242;95525.45;;;;
2020/03/20 04:29:49;;;;;;;20.4;16.85;;;;;;;3.89;82.23242;95525.45;;;;
2020/03/20 04:30:50;;;;;;;20.4;16.85;;;;;;;3.89;82.23242;95525.45;;;;
2020/03/20 04:31:50;;;;;;;20.4;16.85;;;;;;;3.89;82.23242;95525.45;;;;
2020/03/20 04:32:52;;;;;;;20.4;16.85;;;;;;;3.89;82.23242;95525.45;;;;
2020/03/20 04:33:52;;;;;;;20.4;16.85;;;;;;;3.89;82.23242;95525.45;;;;
2020/03/20 04:34:53;;;;;;;20.4;16.85;;;;;;;3.89;82.23242;95525.45;;;;
2020/03/20 04:35:53;;;;;;;22.85;17.35;;;;;;;3.78;81.62207;95530.89;;;;
2020/03/20 04:36:54;;;;;;;22.85;17.35;;;;;;;3.78;81.62207;95530.89;;;;
2020/03/20 04:37:54;;;;;;;22.85;17.35;;;;;;;3.78;81.62207;95530.89;;;;
2020/03/20 04:38:55;;;;;;;22.85;17.35;;;;;;;3.78;81.62207;95530.89;;;;
2020/03/20 04:39:55;;;;;;;22.85;17.35;;;;;;;3.78;81.62207;95530.89;;;;
2020/03/20 04:41:11;;;;;;;22.85;17.35;;;;;;;3.78;81.62207;95530.89;;;;
2020/03/20 04:42:12;;;;;;;22.85;17.35;;;;;;;3.78;81.62207;95530.89;;;;
2020/03/20 04:43:12;;;;;;;22.85;17.35;;;;;;;3.78;81.62207;95530.89;;;;
2020/03/20 04:44:15;;;;;;;22.85;17.35;;;;;;;3.78;81.62207;95530.89;;;;
2020/03/20 04:45:16;;;;;;;22.85;17.35;;;;;;;3.78;81.62207;95530.89;;;;
2020/03/20 04:46:19;;;;;;;21.75;16.35;;;;;;;3.7;81.62891;95530.49;;;;
2020/03/20 04:47:19;;;;;;;21.75;16.35;;;;;;;3.7;81.62891;95530.49;;;;
2020/03/20 04:48:20;;;;;;;21.75;16.35;;;;;;;3.7;81.62891;95530.49;;;;
2020/03/20 04:49:21;;;;;;;21.75;16.35;;;;;;;3.7;81.62891;95530.49;;;;
2020/03/20 04:50:21;;;;;;;21.75;16.35;;;;;;;3.7;81.62891;95530.49;;;;
2020/03/20 04:51:23;;;;;;;21.75;16.35;;;;;;;3.7;81.62891;95530.49;;;;
2020/03/20 04:52:23;;;;;;;21.75;16.35;;;;;;;3.7;81.62891;95530.49;;;;
2020/03/20 04:53:24;;;;;;;21.75;16.35;;;;;;;3.7;81.62891;95530.49;;;;
2020/03/20 04:54:24;;;;;;;21.75;16.35;;;;;;;3.7;81.62891;95530.49;;;;
2020/03/20 04:55:26;;;;;;;21.75;16.35;;;;;;;3.7;81.62891;95530.49;;;;
2020/03/20 04:56:27;;;;;;;24.45;17.2;;;;;;;3.63;81.52148;95527.33;;;;
2020/03/20 04:57:28;;;;;;;24.45;17.2;;;;;;;3.63;81.52148;95527.33;;;;
2020/03/20 04:58:28;;;;;;;24.45;17.2;;;;;;;3.63;81.52148;95527.33;;;;
2020/03/20 04:59:29;;;;;;;24.45;17.2;;;;;;;3.63;81.52148;95527.33;;;;
2020/03/20 05:00:31;;;;;;;24.45;17.2;;;;;;;3.63;81.52148;95527.33;;;;
2020/03/20 05:01:37;;;;;;;24.45;17.2;;;;;;;3.63;81.52148;95527.33;;;;
2020/03/20 05:02:37;;;;;;;24.45;17.2;;;;;;;3.63;81.52148;95527.33;;;;
2020/03/20 05:03:41;;;;;;;24.45;17.2;;;;;;;3.63;81.52148;95527.33;;;;
2020/03/20 05:04:44;;;;;;;24.45;17.2;;;;;;;3.63;81.52148;95527.33;;;;
2020/03/20 05:05:45;;;;;;;24.45;17.2;;;;;;;3.63;81.52148;95527.33;;;;
2020/03/20 05:06:46;;;;;;;24.45;17.2;;;;;;;3.63;81.52148;95527.33;;;;
2020/03/20 05:07:48;;;;;;;21.4;16.05;;;;;;;3.72;81.4873;95532.89;;;;
2020/03/20 05:08:49;;;;;;;21.4;16.05;;;;;;;3.72;81.4873;95532.89;;;;
2020/03/20 05:09:51;;;;;;;21.4;16.05;;;;;;;3.72;81.4873;95532.89;;;;
2020/03/20 05:10:51;;;;;;;21.4;16.05;;;;;;;3.72;81.4873;95532.89;;;;
2020/03/20 05:11:52;;;;;;;21.4;16.05;;;;;;;3.72;81.4873;95532.89;;;;
2020/03/20 05:12:53;;;;;;;21.4;16.05;;;;;;;3.72;81.4873;95532.89;;;;
2020/03/20 05:13:55;;;;;;;21.4;16.05;;;;;;;3.72;81.4873;95532.89;;;;
2020/03/20 05:14:55;;;;;;;21.4;16.05;;;;;;;3.72;81.4873;95532.89;;;;
2020/03/20 05:15:56;;;;;;;21.4;16.05;;;;;;;3.72;81.4873;95532.89;;;;
2020/03/20 05:16:59;;;;;;;21.4;16.05;;;;;;;3.72;81.4873;95532.89;;;;
2020/03/20 05:18:00;;;;;;;19.2;15.2;;;;;;;3.87;81.19824;95527.89;;;;
2020/03/20 05:19:06;;;;;;;19.2;15.2;;;;;;;3.87;81.19824;95527.89;;;;
2020/03/20 05:20:06;;;;;;;19.2;15.2;;;;;;;3.87;81.19824;95527.89;;;;
2020/03/20 05:21:08;;;;;;;21.25;16.25;;;;;;;3.98;82.32324;95522.55;;;;
2020/03/20 05:22:08;;;;;;;21.25;16.25;;;;;;;3.98;82.32324;95522.55;;;;
2020/03/20 05:23:10;;;;;;;21.25;16.25;;;;;;;3.98;82.32324;95522.55;;;;
2020/03/20 05:24:13;;;;;;;21.25;16.25;;;;;;;3.98;82.32324;95522.55;;;;
2020/03/20 05:25:14;;;;;;;21.25;16.25;;;;;;;3.98;82.32324;95522.55;;;;
2020/03/20 05:26:14;;;;;;;21.25;16.25;;;;;;;3.98;82.32324;95522.55;;;;
2020/03/20 05:27:15;;;;;;;21.25;16.25;;;;;;;3.98;82.32324;95522.55;;;;
2020/03/20 05:28:15;;;;;;;21.25;16.25;;;;;;;3.98;82.32324;95522.55;;;;
2020/03/20 05:29:16;;;;;;;21.25;16.25;;;;;;;3.98;82.32324;95522.55;;;;
2020/03/20 05:30:16;;;;;;;21.25;16.25;;;;;;;3.98;82.32324;95522.55;;;;
2020/03/20 05:31:17;;;;;;;26.1;16.25;;;;;;;4.17;81.49902;95517.83;;;;
2020/03/20 05:32:17;;;;;;;26.1;16.25;;;;;;;4.17;81.49902;95517.83;;;;
2020/03/20 05:33:18;;;;;;;26.1;16.25;;;;;;;4.17;81.49902;95517.83;;;;
2020/03/20 05:34:19;;;;;;;26.1;16.25;;;;;;;4.17;81.49902;95517.83;;;;
2020/03/20 05:35:19;;;;;;;26.1;16.25;;;;;;;4.17;81.49902;95517.83;;;;
2020/03/20 05:36:20;;;;;;;26.1;16.25;;;;;;;4.17;81.49902;95517.83;;;;
2020/03/20 05:37:21;;;;;;;26.1;16.25;;;;;;;4.17;81.49902;95517.83;;;;
2020/03/20 05:38:21;;;;;;;26.1;16.25;;;;;;;4.17;81.49902;95517.83;;;;
2020/03/20 05:39:23;;;;;;;26.1;16.25;;;;;;;4.17;81.49902;95517.83;;;;
2020/03/20 05:40:24;;;;;;;26.1;16.25;;;;;;;4.17;81.49902;95517.83;;;;
2020/03/20 05:41:24;;;;;;;26.1;16.25;;;;;;;4.17;81.49902;95517.83;;;;
2020/03/20 05:42:25;;;;;;;24.6;15.3;;;;;;;4.47;81.20703;95510.5;;;;
2020/03/20 05:43:25;;;;;;;24.6;15.3;;;;;;;4.47;81.20703;95510.5;;;;
2020/03/20 05:44:26;;;;;;;24.6;15.3;;;;;;;4.47;81.20703;95510.5;;;;
2020/03/20 05:45:27;;;;;;;24.6;15.3;;;;;;;4.47;81.20703;95510.5;;;;
2020/03/20 05:46:28;;;;;;;24.6;15.3;;;;;;;4.47;81.20703;95510.5;;;;
2020/03/20 05:47:28;;;;;;;24.6;15.3;;;;;;;4.47;81.20703;95510.5;;;;
2020/03/20 05:48:29;;;;;;;24.6;15.3;;;;;;;4.47;81.20703;95510.5;;;;
2020/03/20 05:49:30;;;;;;;24.6;15.3;;;;;;;4.47;81.20703;95510.5;;;;
2020/03/20 05:50:32;;;;;;;24.6;15.3;;;;;;;4.47;81.20703;95510.5;;;;
2020/03/20 05:51:32;;;;;;;24.6;15.3;;;;;;;4.47;81.20703;95510.5;;;;
2020/03/20 05:52:33;;;;;;;19.3;14.75;;;;;;;4.84;80.77051;95517.77;;;;
2020/03/20 05:53:34;;;;;;;19.3;14.75;;;;;;;4.84;80.77051;95517.77;;;;
2020/03/20 05:54:34;;;;;;;19.3;14.75;;;;;;;4.84;80.77051;95517.77;;;;
2020/03/20 05:55:35;;;;;;;19.3;14.75;;;;;;;4.84;80.77051;95517.77;;;;
2020/03/20 05:56:35;;;;;;;19.3;14.75;;;;;;;4.84;80.77051;95517.77;;;;
2020/03/20 05:57:36;;;;;;;19.3;14.75;;;;;;;4.84;80.77051;95517.77;;;;
2020/03/20 05:58:37;;;;;;;19.3;14.75;;;;;;;4.84;80.77051;95517.77;;;;
2020/03/20 05:59:37;;;;;;;19.3;14.75;;;;;;;4.84;80.77051;95517.77;;;;
2020/03/20 06:00:38;;;;;;;19.3;14.75;;;;;;;4.84;80.77051;95517.77;;;;
2020/03/20 06:01:38;;;;;;;19.3;14.75;;;;;;;4.84;80.77051;95517.77;;;;
2020/03/20 06:02:39;;;;;;;21;14.15;;;;;;;5.24;80.32715;95520.19;;;;
2020/03/20 06:03:40;;;;;;;21;14.15;;;;;;;5.24;80.32715;95520.19;;;;
2020/03/20 06:04:40;;;;;;;21;14.15;;;;;;;5.24;80.32715;95520.19;;;;
2020/03/20 06:05:41;;;;;;;21;14.15;;;;;;;5.24;80.32715;95520.19;;;;
2020/03/20 06:06:42;;;;;;;21;14.15;;;;;;;5.24;80.32715;95520.19;;;;
2020/03/20 06:07:43;;;;;;;21;14.15;;;;;;;5.24;80.32715;95520.19;;;;
2020/03/20 06:08:44;;;;;;;21;14.15;;;;;;;5.24;80.32715;95520.19;;;;
2020/03/20 06:09:44;;;;;;;21;14.15;;;;;;;5.24;80.32715;95520.19;;;;
2020/03/20 06:10:45;;;;;;;21;14.15;;;;;;;5.24;80.32715;95520.19;;;;
2020/03/20 06:11:46;;;;;;;21;14.15;;;;;;;5.24;80.32715;95520.19;;;;
2020/03/20 06:12:47;;;;;;;21;14.15;;;;;;;5.24;80.32715;95520.19;;;;
2020/03/20 06:13:47;;;;;;;21.15;14.55;;;;;;;5.45;80.07227;95516.91;;;;
2020/03/20 06:14:48;;;;;;;21.15;14.55;;;;;;;5.45;80.07227;95516.91;;;;
2020/03/20 06:15:50;;;;;;;21.15;14.55;;;;;;;5.45;80.07227;95516.91;;;;
2020/03/20 06:16:52;;;;;;;21.15;14.55;;;;;;;5.45;80.07227;95516.91;;;;
2020/03/20 06:17:52;;;;;;;21.15;14.55;;;;;;;5.45;80.07227;95516.91;;;;
2020/03/20 06:18:55;;;;;;;21.15;14.55;;;;;;;5.45;80.07227;95516.91;;;;
2020/03/20 06:19:55;;;;;;;21.15;14.55;;;;;;;5.45;80.07227;95516.91;;;;
2020/03/20 06:20:56;;;;;;;21.15;14.55;;;;;;;5.45;80.07227;95516.91;;;;
2020/03/20 06:21:58;;;;;;;21.15;14.55;;;;;;;5.45;80.07227;95516.91;;;;
2020/03/20 06:22:58;;;;;;;21.15;14.55;;;;;;;5.45;80.07227;95516.91;;;;
2020/03/20 06:24:03;;;;;;;16.4;13.05;;;;;;;5.76;79.95898;95518.69;;;;
2020/03/20 06:25:04;;;;;;;16.4;13.05;;;;;;;5.76;79.95898;95518.69;;;;
2020/03/20 06:26:08;;;;;;;16.4;13.05;;;;;;;5.76;79.95898;95518.69;;;;
2020/03/20 06:27:13;;;;;;;16.4;13.05;;;;;;;5.76;79.95898;95518.69;;;;
2020/03/20 06:28:17;;;;;;;16.4;13.05;;;;;;;5.76;79.95898;95518.69;;;;
2020/03/20 06:29:17;;;;;;;16.4;13.05;;;;;;;5.76;79.95898;95518.69;;;;
2020/03/20 06:30:19;;;;;;;16.4;13.05;;;;;;;5.76;79.95898;95518.69;;;;
2020/03/20 06:31:27;;;;;;;16.4;13.05;;;;;;;5.76;79.95898;95518.69;;;;
2020/03/20 06:32:29;;;;;;;16.4;13.05;;;;;;;5.76;79.95898;95518.69;;;;
2020/03/20 06:33:52;;;;;;;16.4;13.05;;;;;;;5.76;79.95898;95518.69;;;;
2020/03/20 06:34:54;;;;;;;17.45;14.4;;;;;;;6.35;79.63672;95525.89;;;;
2020/03/20 06:35:56;;;;;;;17.45;14.4;;;;;;;6.35;79.63672;95525.89;;;;
2020/03/20 06:36:56;;;;;;;17.45;14.4;;;;;;;6.35;79.63672;95525.89;;;;
2020/03/20 06:37:57;;;;;;;18;14.85;;;;;;;6.75;80.82129;95524.58;;;;
2020/03/20 06:39:02;;;;;;;18;14.85;;;;;;;6.75;80.82129;95524.58;;;;
2020/03/20 06:40:12;;;;;;;18;14.85;;;;;;;6.75;80.82129;95524.58;;;;
2020/03/20 06:41:14;;;;;;;18;14.85;;;;;;;6.75;80.82129;95524.58;;;;
2020/03/20 06:42:17;;;;;;;18;14.85;;;;;;;6.75;80.82129;95524.58;;;;
2020/03/20 06:43:19;;;;;;;18;14.85;;;;;;;6.75;80.82129;95524.58;;;;
2020/03/20 06:44:19;;;;;;;18;14.85;;;;;;;6.75;80.82129;95524.58;;;;
2020/03/20 06:45:21;;;;;;;18;14.85;;;;;;;6.75;80.82129;95524.58;;;;
2020/03/20 06:46:22;;;;;;;18;14.85;;;;;;;6.75;80.82129;95524.58;;;;
2020/03/20 06:47:59;;;;;;;18;14.85;;;;;;;6.75;80.82129;95524.58;;;;
2020/03/20 06:49:00;;;;;;;16.05;12.2;;;;;;;8.51;77.92676;95522.69;;;;
2020/03/20 06:50:05;;;;;;;16.05;12.2;;;;;;;8.51;77.92676;95522.69;;;;
2020/03/20 06:51:07;;;;;;;15.5;11.8;;;;;;;8.98;78.34277;95527.51;;;;
2020/03/20 06:52:08;;;;;;;15.5;11.8;;;;;;;8.98;78.34277;95527.51;;;;
2020/03/20 06:53:09;;;;;;;15.5;11.8;;;;;;;8.98;78.34277;95527.51;;;;
2020/03/20 06:54:11;;;;;;;15.5;11.8;;;;;;;8.98;78.34277;95527.51;;;;
2020/03/20 06:55:12;;;;;;;15.5;11.8;;;;;;;8.98;78.34277;95527.51;;;;
2020/03/20 06:56:13;;;;;;;15.5;11.8;;;;;;;8.98;78.34277;95527.51;;;;
2020/03/20 06:57:13;;;;;;;15.5;11.8;;;;;;;8.98;78.34277;95527.51;;;;
2020/03/20 06:58:14;;;;;;;15.5;11.8;;;;;;;8.98;78.34277;95527.51;;;;
2020/03/20 06:59:15;;;;;;;15.5;11.8;;;;;;;8.98;78.34277;95527.51;;;;
2020/03/20 07:00:16;;;;;;;15.5;11.8;;;;;;;8.98;78.34277;95527.51;;;;
2020/03/20 07:01:20;;;;;;;12.6;10.75;;;;;;;10.58;75.4209;95527.04;;;;
2020/03/20 07:02:21;;;;;;;12.6;10.75;;;;;;;10.58;75.4209;95527.04;;;;
2020/03/20 07:03:22;;;;;;;12.6;10.75;;;;;;;10.58;75.4209;95527.04;;;;
2020/03/20 07:04:24;;;;;;;13.25;10.75;;;;;;;11;75.22656;95525.58;;;;
2020/03/20 07:05:24;;;;;;;13.25;10.75;;;;;;;11;75.22656;95525.58;;;;
2020/03/20 07:06:25;;;;;;;12.55;10.7;;;;;;;11.37;74.67871;95529.72;;;;
2020/03/20 07:07:26;;;;;;;12.55;10.7;;;;;;;11.37;74.67871;95529.72;;;;
2020/03/20 07:08:26;;;;;;;12.55;10.7;;;;;;;11.37;74.67871;95529.72;;;;
2020/03/20 07:09:27;;;;;;;12.15;10.6;;;;;;;11.65;74.28613;95531.75;;;;
2020/03/20 07:10:27;;;;;;;12.15;10.6;;;;;;;11.65;74.28613;95531.75;;;;
2020/03/20 07:11:28;;;;;;;12.15;10.6;;;;;;;11.65;74.28613;95531.75;;;;
2020/03/20 07:12:29;;;;;;;12.15;10.6;;;;;;;11.65;74.28613;95531.75;;;;
2020/03/20 07:13:30;;;;;;;12.15;10.6;;;;;;;11.65;74.28613;95531.75;;;;
2020/03/20 07:14:31;;;;;;;12.15;10.6;;;;;;;11.65;74.28613;95531.75;;;;
2020/03/20 07:15:31;;;;;;;12.15;10.6;;;;;;;11.65;74.28613;95531.75;;;;
2020/03/20 07:16:32;;;;;;;12.15;10.6;;;;;;;11.65;74.28613;95531.75;;;;
2020/03/20 07:17:33;;;;;;;12.15;10.6;;;;;;;11.65;74.28613;95531.75;;;;
2020/03/20 07:18:34;;;;;;;12.15;10.6;;;;;;;11.65;74.28613;95531.75;;;;
2020/03/20 07:19:35;;;;;;;12.15;10.6;;;;;;;11.65;74.28613;95531.75;;;;
2020/03/20 07:20:36;;;;;;;12.2;10.3;;;;;;;12.01;73.5752;95534.59;;;;
2020/03/20 07:21:37;;;;;;;12.2;10.3;;;;;;;12.01;73.5752;95534.59;;;;
2020/03/20 07:22:37;;;;;;;14.75;10.45;;;;;;;12.15;73.37207;95533.36;;;;
2020/03/20 07:23:38;;;;;;;14.75;10.45;;;;;;;12.15;73.37207;95533.36;;;;
2020/03/20 07:24:39;;;;;;;14.75;10.45;;;;;;;12.15;73.37207;95533.36;;;;
2020/03/20 07:25:39;;;;;;;11.05;9.75;;;;;;;12.38;72.99023;95536.94;;;;
2020/03/20 07:26:40;;;;;;;11.05;9.75;;;;;;;12.38;72.99023;95536.94;;;;
2020/03/20 07:27:40;;;;;;;12.3;9.950001;;;;;;;12.84;71.79883;95531.75;;;;
2020/03/20 07:28:41;;;;;;;12.3;9.950001;;;;;;;12.84;71.79883;95531.75;;;;
2020/03/20 07:29:41;;;;;;;12.3;9.950001;;;;;;;12.84;71.79883;95531.75;;;;
2020/03/20 07:30:42;;;;;;;10.8;9.6;;;;;;;13.69;69.54199;95526.54;;;;
2020/03/20 07:31:42;;;;;;;10.8;9.6;;;;;;;13.69;69.54199;95526.54;;;;
2020/03/20 07:32:43;;;;;;;10.8;9.6;;;;;;;13.69;69.54199;95526.54;;;;
2020/03/20 07:33:44;;;;;;;12.4;9.199999;;;;;;;14.83;66.88672;95530.05;;;;
2020/03/20 07:34:44;;;;;;;12.4;9.199999;;;;;;;14.83;66.88672;95530.05;;;;
2020/03/20 07:35:45;;;;;;;10.45;9.35;;;;;;;16.04;64.00586;95526.03;;;;
2020/03/20 07:36:46;;;;;;;10.45;9.35;;;;;;;16.04;64.00586;95526.03;;;;
2020/03/20 07:37:47;;;;;;;10.45;9.35;;;;;;;16.04;64.00586;95526.03;;;;
2020/03/20 07:38:48;;;;;;;10.2;9.1;;;;;;;17.22;60.77441;95536.02;;;;
2020/03/20 07:39:49;;;;;;;10.2;9.1;;;;;;;17.22;60.77441;95536.02;;;;
2020/03/20 07:40:50;;;;;;;10.2;9.1;;;;;;;17.22;60.77441;95536.02;;;;
2020/03/20 07:41:50;;;;;;;10.5;9.049999;;;;;;;17.97;58.73438;95536.19;;;;
2020/03/20 07:42:52;;;;;;;10.5;9.049999;;;;;;;17.97;58.73438;95536.19;;;;
2020/03/20 07:43:54;;;;;;;10.85;9.1;;;;;;;18.38;57.22461;95540.47;;;;
2020/03/20 07:44:54;;;;;;;10.85;9.1;;;;;;;18.38;57.22461;95540.47;;;;
2020/03/20 07:45:55;;;;;;;10.85;9.1;;;;;;;18.38;57.22461;95540.47;;;;
2020/03/20 07:46:55;;;;;;;10.75;9.450001;;;;;;;19.29;54.8291;95549.91;;;;
2020/03/20 07:47:56;;;;;;;10.75;9.450001;;;;;;;19.29;54.8291;95549.91;;;;
2020/03/20 07:48:56;;;;;;;9.65;8.55;;;;;;;20.44;52.32617;95537.72;;;;
2020/03/20 07:49:57;;;;;;;9.65;8.55;;;;;;;20.44;52.32617;95537.72;;;;
2020/03/20 07:50:57;;;;;;;9.65;8.55;;;;;;;20.44;52.32617;95537.72;;;;
2020/03/20 07:51:58;;;;;;;11;9.25;;;;;;;21.52;50.15625;95548.69;;;;
2020/03/20 07:52:58;;;;;;;11;9.25;;;;;;;21.52;50.15625;95548.69;;;;
2020/03/20 07:53:59;;;;;;;11;9.25;;;;;;;21.52;50.15625;95548.69;;;;
2020/03/20 07:54:59;;;;;;;9.799999;8.799998;;;;;;;22.12;48.60742;95547.74;;;;
2020/03/20 07:56:00;;;;;;;9.799999;8.799998;;;;;;;22.12;48.60742;95547.74;;;;
2020/03/20 07:57:01;;;;;;;9.950002;8.95;;;;;;;22.94;47.06543;95553.76;;;;
2020/03/20 07:58:01;;;;;;;9.950002;8.95;;;;;;;22.94;47.06543;95553.76;;;;
2020/03/20 07:59:02;;;;;;;9.950002;8.95;;;;;;;22.94;47.06543;95553.76;;;;
2020/03/20 08:00:03;;;;;;;9.849999;8.849999;;;;;;;23.64;45.22754;95551.26;;;;
2020/03/20 08:01:13;;;;;;;9.849999;8.849999;;;;;;;23.64;45.22754;95551.26;;;;
2020/03/20 08:02:13;;;;;;;9.600001;8.650002;;;;;;;24.04;44.13379;95545.37;;;;